createdAt,value
2022-09-25T00:00:45.980Z,0.43
2022-09-25T00:03:26.535Z,0.57
2022-09-25T00:06:07.265Z,0.40
2022-09-25T00:08:44.579Z,0.50
2022-09-25T00:11:20.364Z,0.43
2022-09-25T00:13:50.439Z,0.40
2022-09-25T00:19:42.321Z,0.40
2022-09-25T00:22:15.876Z,0.40
2022-09-25T00:27:29.348Z,0.30
2022-09-25T00:30:02.131Z,0.30
2022-09-25T00:32:32.984Z,0.50
2022-09-25T00:35:01.014Z,0.40
2022-09-25T00:37:31.358Z,0.40
2022-09-25T00:40:02.686Z,0.40
2022-09-25T00:42:34.486Z,0.13
2022-09-25T00:45:25.802Z,0.43
2022-09-25T00:48:04.614Z,0.32
2022-09-25T00:50:57.696Z,0.40
2022-09-25T00:56:22.101Z,0.57
2022-09-25T00:58:51.613Z,0.53
2022-09-25T01:01:24.450Z,0.20
2022-09-25T01:06:36.239Z,0.37
2022-09-25T01:09:21.822Z,0.30
2022-09-25T01:11:52.104Z,0.33
2022-09-25T01:14:28.681Z,0.50
2022-09-25T01:17:11.298Z,0.40
2022-09-25T01:20:18.569Z,0.33
2022-09-25T01:23:08.744Z,0.40
2022-09-25T01:25:50.228Z,0.30
2022-09-25T01:28:39.425Z,0.50
2022-09-25T01:31:19.750Z,0.30
2022-09-25T01:33:59.888Z,0.40
2022-09-25T01:36:47.238Z,0.40
2022-09-25T01:39:50.818Z,0.50
2022-09-25T01:42:24.557Z,0.20
2022-09-25T01:45:10.480Z,0.50
2022-09-25T01:50:51.229Z,0.33
2022-09-25T01:53:47.091Z,0.20
2022-09-25T01:56:36.816Z,0.30
2022-09-25T01:59:47.728Z,0.40
2022-09-25T02:02:19.997Z,0.30
2022-09-25T02:05:09.126Z,0.40
2022-09-25T02:07:42.357Z,0.30
2022-09-25T02:10:40.568Z,0.20
2022-09-25T02:13:19.042Z,0.30
2022-09-25T02:15:53.041Z,0.30
2022-09-25T02:18:41.549Z,0.33
2022-09-25T02:21:33.073Z,0.43
2022-09-25T02:24:15.725Z,0.35
2022-09-25T02:26:55.447Z,0.60
2022-09-25T02:29:38.042Z,0.25
2022-09-25T02:32:18.240Z,1.25
2022-09-25T02:34:47.719Z,0.97
2022-09-25T02:37:19.491Z,0.17
2022-09-25T02:39:53.601Z,0.40
2022-09-25T02:42:33.505Z,0.30
2022-09-25T02:45:23.639Z,1.10
2022-09-25T02:48:14.284Z,2.40
2022-09-25T02:51:18.834Z,1.95
2022-09-25T02:54:03.802Z,1.97
2022-09-25T02:56:44.932Z,1.27
2022-09-25T02:59:16.931Z,1.60
2022-09-25T03:01:47.141Z,1.20
2022-09-25T03:04:37.341Z,0.85
2022-09-25T03:07:06.886Z,0.50
2022-09-25T03:09:44.369Z,0.63
2022-09-25T03:12:12.581Z,0.50
2022-09-25T03:14:41.646Z,0.70
2022-09-25T03:17:16.193Z,0.50
2022-09-25T03:19:47.775Z,0.80
2022-09-25T03:22:22.380Z,0.90
2022-09-25T03:24:53.687Z,0.60
2022-09-25T03:27:33.737Z,0.60
2022-09-25T03:30:03.455Z,0.57
2022-09-25T03:32:38.869Z,0.50
2022-09-25T03:35:23.055Z,0.63
2022-09-25T03:38:06.866Z,0.47
2022-09-25T03:40:44.603Z,0.73
2022-09-25T03:45:51.809Z,0.47
2022-09-25T03:48:29.091Z,0.40
2022-09-25T03:50:59.257Z,0.53
2022-09-25T03:53:39.091Z,0.60
2022-09-25T03:56:17.965Z,0.30
2022-09-25T03:58:54.215Z,0.30
2022-09-25T04:01:24.961Z,0.27
2022-09-25T04:06:47.125Z,0.30
2022-09-25T04:09:32.453Z,0.60
2022-09-25T04:12:10.441Z,0.30
2022-09-25T04:14:49.745Z,0.30
2022-09-25T04:17:22.608Z,0.40
2022-09-25T04:20:00.462Z,0.30
2022-09-25T04:22:29.667Z,0.40
2022-09-25T04:25:10.786Z,0.40
2022-09-25T04:27:46.729Z,0.20
2022-09-25T04:30:25.625Z,0.40
2022-09-25T04:33:11.500Z,0.50
2022-09-25T04:35:47.049Z,0.20
2022-09-25T04:38:18.625Z,0.23
2022-09-25T04:40:49.948Z,0.50
2022-09-25T04:43:24.089Z,0.30
2022-09-25T04:45:56.629Z,0.43
2022-09-25T04:48:26.216Z,0.50
2022-09-25T04:50:55.092Z,0.30
2022-09-25T04:53:27.378Z,0.23
2022-09-25T04:56:04.646Z,0.30
2022-09-25T04:58:40.195Z,0.37
2022-09-25T05:01:23.068Z,0.30
2022-09-25T05:04:08.733Z,0.50
2022-09-25T05:06:53.554Z,0.50
2022-09-25T05:09:24.855Z,0.57
2022-09-25T05:12:06.790Z,0.60
2022-09-25T05:14:41.246Z,0.55
2022-09-25T05:17:24.515Z,0.40
2022-09-25T05:19:57.706Z,0.70
2022-09-25T05:25:21.776Z,0.80
2022-09-25T05:28:03.109Z,0.53
2022-09-25T05:30:44.074Z,0.60
2022-09-25T05:33:14.327Z,0.80
2022-09-25T05:35:47.091Z,0.63
2022-09-25T05:38:21.380Z,0.60
2022-09-25T05:40:55.901Z,0.60
2022-09-25T05:43:25.538Z,0.83
2022-09-25T05:46:02.665Z,0.50
2022-09-25T05:48:47.671Z,1.40
2022-09-25T05:51:22.187Z,2.10
2022-09-25T05:53:58.250Z,1.97
2022-09-25T05:56:28.623Z,1.67
2022-09-25T05:58:59.978Z,1.93
2022-09-25T06:01:30.183Z,0.82
2022-09-25T06:04:00.210Z,0.33
2022-09-25T06:06:34.364Z,1.00
2022-09-25T06:09:03.538Z,0.80
2022-09-25T06:11:49.356Z,0.60
2022-09-25T06:14:36.033Z,1.00
2022-09-25T06:17:18.348Z,0.97
2022-09-25T06:19:55.462Z,0.40
2022-09-25T06:22:23.050Z,0.40
2022-09-25T06:24:54.045Z,0.90
2022-09-25T06:27:23.268Z,1.27
2022-09-25T06:29:59.598Z,0.50
2022-09-25T06:32:31.815Z,0.50
2022-09-25T06:35:05.007Z,0.43
2022-09-25T06:37:36.262Z,0.50
2022-09-25T06:40:15.614Z,0.52
2022-09-25T06:42:47.346Z,0.57
2022-09-25T06:47:51.121Z,5.27
2022-09-25T06:50:20.053Z,1.60
2022-09-25T06:53:01.567Z,1.00
2022-09-25T06:55:34.617Z,0.70
2022-09-25T07:00:50.008Z,0.40
2022-09-25T07:03:37.582Z,0.80
2022-09-25T07:06:14.844Z,0.57
2022-09-25T07:08:50.819Z,0.50
2022-09-25T07:11:32.015Z,0.50
2022-09-25T07:14:04.409Z,0.47
2022-09-25T07:16:42.150Z,0.50
2022-09-25T07:19:18.363Z,0.70
2022-09-25T07:21:49.412Z,0.70
2022-09-25T07:24:18.384Z,0.65
2022-09-25T07:26:49.833Z,0.67
2022-09-25T07:29:19.973Z,0.40
2022-09-25T07:31:51.066Z,0.50
2022-09-25T07:34:22.283Z,0.83
2022-09-25T07:36:57.194Z,0.37
2022-09-25T07:39:34.272Z,0.57
2022-09-25T07:42:09.089Z,0.67
2022-09-25T07:44:38.672Z,0.80
2022-09-25T07:47:09.959Z,0.63
2022-09-25T07:49:40.313Z,0.60
2022-09-25T07:52:16.206Z,0.40
2022-09-25T07:54:55.798Z,0.70
2022-09-25T07:57:27.506Z,0.70
2022-09-25T08:02:44.272Z,0.47
2022-09-25T08:05:18.390Z,0.63
2022-09-25T08:07:48.756Z,0.60
2022-09-25T08:10:25.700Z,0.67
2022-09-25T08:12:59.671Z,0.80
2022-09-25T08:15:31.804Z,0.73
2022-09-25T08:18:07.905Z,0.70
2022-09-25T08:20:40.555Z,0.93
2022-09-25T08:23:23.240Z,1.00
2022-09-25T08:25:51.611Z,1.00
2022-09-25T08:28:23.745Z,0.87
2022-09-25T08:33:26.531Z,0.80
2022-09-25T08:35:58.957Z,1.23
2022-09-25T08:38:29.921Z,0.83
2022-09-25T08:41:06.044Z,0.65
2022-09-25T08:43:43.901Z,1.00
2022-09-25T08:46:40.815Z,0.60
2022-09-25T08:49:13.563Z,0.87
2022-09-25T08:51:47.683Z,1.10
2022-09-25T08:54:34.926Z,1.30
2022-09-25T08:57:13.541Z,0.77
2022-09-25T08:59:50.886Z,0.50
2022-09-25T09:02:23.906Z,1.10
2022-09-25T09:05:09.849Z,1.20
2022-09-25T09:07:47.661Z,1.13
2022-09-25T09:11:04.588Z,1.43
2022-09-25T09:13:58.329Z,0.80
2022-09-25T09:16:36.772Z,0.77
2022-09-25T09:19:07.116Z,0.67
2022-09-25T09:21:57.796Z,1.47
2022-09-25T09:24:57.258Z,2.00
2022-09-25T09:27:50.088Z,3.50
2022-09-25T09:30:20.378Z,1.33
2022-09-25T09:33:11.752Z,0.93
2022-09-25T09:36:01.687Z,0.47
2022-09-25T09:38:49.080Z,1.20
2022-09-25T09:41:42.577Z,1.53
2022-09-25T09:44:28.192Z,1.10
2022-09-25T09:47:30.350Z,0.83
2022-09-25T09:52:54.628Z,0.50
2022-09-25T09:58:13.579Z,0.70
2022-09-25T10:00:51.592Z,0.57
2022-09-25T10:03:30.734Z,0.60
2022-09-25T10:06:09.392Z,1.17
2022-09-25T10:08:40.912Z,1.43
2022-09-25T10:11:19.460Z,1.67
2022-09-25T10:13:53.092Z,1.00
2022-09-25T10:16:37.477Z,0.50
2022-09-25T10:19:21.116Z,0.73
2022-09-25T10:22:06.366Z,0.70
2022-09-25T10:24:57.986Z,0.77
2022-09-25T10:27:33.167Z,0.60
2022-09-25T10:30:24.272Z,1.20
2022-09-25T10:33:08.671Z,0.70
2022-09-25T10:35:51.199Z,0.83
2022-09-25T10:38:38.806Z,0.90
2022-09-25T10:41:36.511Z,0.53
2022-09-25T10:44:08.187Z,1.03
2022-09-25T10:46:55.938Z,1.00
2022-09-25T10:49:53.066Z,1.03
2022-09-25T10:52:32.044Z,2.47
2022-09-25T10:55:36.477Z,0.90
2022-09-25T10:58:29.420Z,0.73
2022-09-25T11:01:03.720Z,1.33
2022-09-25T11:03:34.376Z,0.80
2022-09-25T11:06:42.555Z,1.00
2022-09-25T11:09:21.445Z,1.20
2022-09-25T11:11:54.749Z,1.00
2022-09-25T11:14:35.011Z,0.87
2022-09-25T11:17:06.148Z,1.10
2022-09-25T11:19:53.739Z,1.03
2022-09-25T11:22:39.045Z,0.87
2022-09-25T11:25:21.270Z,1.07
2022-09-25T11:28:09.542Z,1.17
2022-09-25T11:30:57.400Z,1.27
2022-09-25T11:33:42.785Z,0.90
2022-09-25T11:36:39.401Z,0.87
2022-09-25T11:39:34.077Z,1.03
2022-09-25T11:42:26.178Z,0.93
2022-09-25T11:45:00.467Z,1.10
2022-09-25T11:47:45.542Z,1.20
2022-09-25T11:50:29.121Z,1.17
2022-09-25T11:53:27.021Z,1.20
2022-09-25T11:56:20.763Z,1.33
2022-09-25T11:59:12.939Z,1.03
2022-09-25T12:01:46.587Z,1.40
2022-09-25T12:04:26.734Z,1.10
2022-09-25T12:07:18.683Z,1.30
2022-09-25T12:10:04.743Z,1.38
2022-09-25T12:12:49.854Z,1.87
2022-09-25T12:15:36.048Z,1.80
2022-09-25T12:18:24.950Z,1.43
2022-09-25T12:21:06.126Z,1.40
2022-09-25T12:24:10.285Z,1.10
2022-09-25T12:27:16.034Z,0.90
2022-09-25T12:30:00.271Z,1.17
2022-09-25T12:32:33.770Z,1.00
2022-09-25T12:35:26.910Z,1.40
2022-09-25T12:38:13.853Z,1.73
2022-09-25T12:40:48.636Z,1.60
2022-09-25T12:43:41.293Z,2.13
2022-09-25T12:46:30.444Z,1.60
2022-09-25T12:49:30.781Z,1.40
2022-09-25T12:52:14.959Z,1.50
2022-09-25T12:54:55.809Z,1.15
2022-09-25T12:57:46.551Z,2.07
2022-09-25T13:00:28.396Z,2.30
2022-09-25T13:03:19.555Z,1.27
2022-09-25T13:05:55.631Z,1.35
2022-09-25T13:08:34.485Z,1.40
2022-09-25T13:11:15.877Z,1.97
2022-09-25T13:14:15.703Z,1.40
2022-09-25T13:16:53.884Z,1.40
2022-09-25T13:19:39.720Z,1.20
2022-09-25T13:22:12.590Z,1.33
2022-09-25T13:25:01.357Z,1.10
2022-09-25T13:27:37.605Z,1.63
2022-09-25T13:30:29.618Z,2.00
2022-09-25T13:33:18.896Z,2.40
2022-09-25T13:35:56.705Z,3.03
2022-09-25T13:38:44.357Z,1.50
2022-09-25T13:41:14.219Z,1.23
2022-09-25T13:43:55.272Z,1.50
2022-09-25T13:46:24.937Z,1.60
2022-09-25T13:48:57.291Z,1.10
2022-09-25T13:51:29.554Z,1.47
2022-09-25T13:54:14.394Z,1.13
2022-09-25T13:56:48.501Z,1.20
2022-09-25T13:59:28.878Z,2.23
2022-09-25T14:02:04.121Z,1.63
2022-09-25T14:04:44.858Z,1.10
2022-09-25T14:07:32.077Z,0.97
2022-09-25T14:10:09.621Z,2.50
2022-09-25T14:12:45.874Z,2.23
2022-09-25T14:15:59.399Z,1.03
2022-09-25T14:18:45.160Z,2.53
2022-09-25T14:21:18.906Z,0.67
2022-09-25T14:23:58.455Z,0.90
2022-09-25T14:26:37.126Z,1.17
2022-09-25T14:29:05.248Z,1.30
2022-09-25T14:32:03.882Z,3.13
2022-09-25T14:34:56.567Z,2.10
2022-09-25T14:37:44.325Z,0.90
2022-09-25T14:40:40.173Z,1.67
2022-09-25T14:43:25.614Z,1.10
2022-09-25T14:46:04.494Z,0.90
2022-09-25T14:53:53.316Z,0.83
2022-09-25T14:56:21.877Z,0.40
2022-09-25T14:59:04.925Z,0.77
2022-09-25T15:01:42.022Z,2.83
2022-09-25T15:04:17.165Z,2.23
2022-09-25T15:06:49.834Z,1.87
2022-09-25T15:09:49.150Z,1.00
2022-09-25T15:12:31.058Z,1.47
2022-09-25T15:17:58.144Z,1.00
2022-09-25T15:20:43.913Z,1.63
2022-09-25T15:23:19.428Z,2.17
2022-09-25T15:26:11.387Z,2.47
2022-09-25T15:31:26.968Z,5.93
2022-09-25T15:37:03.849Z,0.60
2022-09-25T15:39:43.719Z,0.67
2022-09-25T15:42:17.342Z,0.40
2022-09-25T15:44:47.964Z,0.87
2022-09-25T15:47:39.364Z,0.33
2022-09-25T15:50:17.391Z,0.75
2022-09-25T15:52:50.320Z,1.63
2022-09-25T15:55:20.458Z,1.67
2022-09-25T15:58:00.509Z,1.58
2022-09-25T16:00:50.033Z,1.33
2022-09-25T16:03:39.381Z,0.50
2022-09-25T16:06:08.234Z,0.50
2022-09-25T16:08:48.423Z,0.50
2022-09-25T16:11:23.829Z,0.40
2022-09-25T16:13:57.588Z,1.40
2022-09-25T16:16:31.816Z,0.40
2022-09-25T16:19:28.359Z,0.40
2022-09-25T16:22:07.389Z,0.70
2022-09-25T16:24:38.527Z,0.67
2022-09-25T16:27:10.040Z,0.90
2022-09-25T16:29:47.366Z,0.70
2022-09-25T16:32:23.993Z,1.10
2022-09-25T16:35:06.778Z,0.73
2022-09-25T16:37:42.846Z,0.93
2022-09-25T16:40:35.019Z,0.93
2022-09-25T16:43:09.047Z,1.30
2022-09-25T16:45:45.394Z,0.40
2022-09-25T16:48:42.156Z,0.50
2022-09-25T16:51:22.559Z,1.30
2022-09-25T16:54:03.288Z,1.20
2022-09-25T16:56:41.459Z,1.10
2022-09-25T16:59:30.194Z,1.00
2022-09-25T17:02:05.351Z,3.47
2022-09-25T17:04:39.407Z,6.47
2022-09-25T17:07:15.290Z,4.67
2022-09-25T17:09:45.451Z,3.10
2022-09-25T17:12:18.633Z,2.87
2022-09-25T17:14:51.127Z,1.90
2022-09-25T17:17:23.952Z,1.45
2022-09-25T17:19:55.255Z,0.80
2022-09-25T17:22:36.353Z,0.90
2022-09-25T17:25:20.858Z,2.53
2022-09-25T17:27:59.401Z,1.43
2022-09-25T17:30:40.525Z,1.73
2022-09-25T17:33:22.886Z,1.90
2022-09-25T17:41:20.110Z,0.90
2022-09-25T17:43:50.314Z,0.90
2022-09-25T17:46:21.371Z,1.27
2022-09-25T17:48:58.307Z,0.80
2022-09-25T17:51:34.677Z,0.77
2022-09-25T17:54:11.561Z,0.90
2022-09-25T17:56:51.633Z,1.20
2022-09-25T17:59:30.468Z,1.00
2022-09-25T18:02:06.853Z,1.63
2022-09-25T18:04:37.655Z,1.63
2022-09-25T18:07:29.920Z,1.73
2022-09-25T18:10:09.304Z,2.77
2022-09-25T18:12:40.620Z,5.50
2022-09-25T18:15:08.561Z,2.15
2022-09-25T18:17:45.129Z,3.03
2022-09-25T18:20:32.501Z,2.13
2022-09-25T18:23:07.229Z,2.00
2022-09-25T18:25:41.649Z,9.50
2022-09-25T18:28:13.720Z,2.33
2022-09-25T18:30:57.537Z,2.38
2022-09-25T18:33:35.494Z,1.80
2022-09-25T18:36:05.942Z,4.50
2022-09-25T18:38:40.063Z,5.27
2022-09-25T18:41:11.136Z,6.37
2022-09-25T18:43:43.542Z,4.70
2022-09-25T18:46:11.935Z,5.73
2022-09-25T18:48:49.480Z,3.67
2022-09-25T18:51:27.611Z,2.50
2022-09-25T18:54:00.596Z,5.47
2022-09-25T18:56:32.696Z,3.10
2022-09-25T18:59:12.594Z,1.67
2022-09-25T19:01:42.014Z,1.33
2022-09-25T19:04:17.203Z,1.53
2022-09-25T19:06:51.248Z,1.37
2022-09-25T19:09:24.456Z,1.40
2022-09-25T19:11:55.846Z,1.57
2022-09-25T19:14:41.519Z,1.92
2022-09-25T19:17:18.170Z,2.10
2022-09-25T19:19:49.666Z,1.90
2022-09-25T19:22:26.161Z,1.90
2022-09-25T19:24:57.736Z,2.03
2022-09-25T19:27:29.250Z,2.00
2022-09-25T19:30:03.404Z,1.90
2022-09-25T19:32:46.967Z,1.87
2022-09-25T19:35:24.411Z,1.60
2022-09-25T19:37:52.624Z,1.90
2022-09-25T19:40:38.565Z,2.30
2022-09-25T19:43:11.400Z,2.23
2022-09-25T19:45:42.291Z,2.33
2022-09-25T19:50:57.255Z,2.57
2022-09-25T19:53:26.929Z,2.57
2022-09-25T19:55:56.030Z,1.77
2022-09-25T19:58:31.843Z,3.23
2022-09-25T20:01:10.863Z,3.00
2022-09-25T20:03:41.351Z,2.13
2022-09-25T20:06:21.454Z,2.87
2022-09-25T20:09:00.880Z,2.33
2022-09-25T20:11:29.243Z,2.70
2022-09-25T20:13:57.724Z,2.43
2022-09-25T20:16:32.356Z,2.87
2022-09-25T20:19:03.446Z,2.67
2022-09-25T20:21:40.126Z,2.53
2022-09-25T20:24:23.077Z,2.30
2022-09-25T20:26:57.267Z,2.67
2022-09-25T20:29:32.364Z,2.10
2022-09-25T20:32:05.234Z,2.93
2022-09-25T20:37:20.892Z,2.90
2022-09-25T20:39:51.821Z,2.57
2022-09-25T20:42:31.066Z,2.30
2022-09-25T20:45:02.763Z,2.27
2022-09-25T20:47:39.320Z,2.03
2022-09-25T20:50:17.583Z,1.83
2022-09-25T20:52:54.497Z,2.90
2022-09-25T20:55:24.353Z,2.80
2022-09-25T20:57:54.645Z,2.60
2022-09-25T21:00:27.783Z,2.37
2022-09-25T21:02:58.170Z,2.00
2022-09-25T21:05:43.161Z,1.83
2022-09-25T21:08:29.576Z,1.83
2022-09-25T21:11:07.023Z,1.80
2022-09-25T21:16:23.555Z,3.23
2022-09-25T21:19:01.159Z,3.40
2022-09-25T21:21:40.179Z,2.77
2022-09-25T21:24:09.515Z,1.87
2022-09-25T21:26:39.007Z,2.40
2022-09-25T21:29:09.795Z,2.37
2022-09-25T21:31:48.989Z,2.60
2022-09-25T21:34:19.539Z,1.90
2022-09-25T21:36:51.418Z,2.20
2022-09-25T21:39:26.305Z,2.60
2022-09-25T21:42:00.697Z,2.57
2022-09-25T21:44:31.642Z,2.43
2022-09-25T21:47:05.206Z,2.10
2022-09-25T21:49:35.293Z,2.23
2022-09-25T21:52:12.362Z,2.73
2022-09-25T21:54:44.638Z,2.77
2022-09-25T21:57:19.764Z,1.87
2022-09-25T21:59:58.640Z,2.23
2022-09-25T22:02:35.569Z,1.87
2022-09-25T22:05:17.310Z,1.33
2022-09-25T22:07:48.005Z,1.55
2022-09-25T22:10:17.900Z,1.57
2022-09-25T22:13:05.041Z,1.70
2022-09-25T22:15:37.918Z,1.80
2022-09-25T22:18:09.470Z,1.70
2022-09-25T22:20:39.416Z,1.60
2022-09-25T22:23:13.276Z,1.40
2022-09-25T22:25:45.171Z,1.47
2022-09-25T22:28:25.000Z,1.70
2022-09-25T22:30:55.943Z,2.27
2022-09-25T22:33:25.844Z,2.03
2022-09-25T22:36:05.118Z,1.80
2022-09-25T22:38:39.926Z,1.87
2022-09-25T22:41:11.822Z,1.53
2022-09-25T22:43:47.163Z,2.27
2022-09-25T22:46:18.881Z,1.93
2022-09-25T22:48:52.372Z,1.52
2022-09-25T22:51:23.161Z,1.83
2022-09-25T22:53:54.022Z,1.77
2022-09-25T22:56:28.804Z,2.92
2022-09-25T22:59:01.015Z,2.17
2022-09-25T23:01:45.539Z,2.47
2022-09-25T23:04:17.180Z,3.00
2022-09-25T23:06:53.309Z,2.45
2022-09-25T23:09:43.030Z,3.50
2022-09-25T23:12:13.620Z,2.57
2022-09-25T23:14:45.126Z,2.97
2022-09-25T23:17:17.949Z,2.42
2022-09-25T23:19:52.210Z,3.17
2022-09-25T23:22:27.367Z,2.60
2022-09-25T23:24:59.198Z,2.77
2022-09-25T23:27:45.245Z,2.80
2022-09-25T23:30:21.954Z,2.37
2022-09-25T23:32:54.424Z,2.87
2022-09-25T23:35:25.158Z,2.53
2022-09-25T23:38:03.552Z,2.43
2022-09-25T23:40:34.684Z,2.00
2022-09-25T23:43:05.211Z,1.65
2022-09-25T23:45:38.597Z,1.97
2022-09-25T23:48:15.388Z,0.90
2022-09-25T23:50:52.418Z,0.60
2022-09-25T23:53:20.807Z,1.60
2022-09-25T23:55:50.998Z,1.03
2022-09-25T23:58:24.278Z,1.03
